Time;durP1;ratioP1;P1;durP2;ratioP2;P2;SDS_P1;SDS_P2;PMS_P1;PMS_P2;Temp;Humidity;BMP_temperature;BMP_pressure;BME280_temperature;BME280_humidity;BME280_pressure;Samples;Min_cycle;Max_cycle;Signal;HPM_P1;HPM_P2
2023/01/30 00:01:24;;;;;;;;;28.00;26.67;;;;;7.65;100.00;101940.97;4968567;28;45657;-86
2023/01/30 00:03:49;;;;;;;;;24.67;19.33;;;;;7.71;100.00;101960.69;4966174;28;45429;-86
2023/01/30 00:06:15;;;;;;;;;32.33;29.33;;;;;7.65;100.00;101941.88;4965846;28;47026;-86
2023/01/30 00:08:40;;;;;;;;;35.67;29.00;;;;;7.65;100.00;101948.94;4970234;28;45693;-86
2023/01/30 00:11:09;;;;;;;;;34.33;31.00;;;;;7.75;100.00;101956.44;4968526;28;45518;-86
2023/01/30 00:13:35;;;;;;;;;42.00;34.00;;;;;7.63;100.00;101948.84;4970615;28;45594;-86
2023/01/30 00:16:01;;;;;;;;;35.00;28.67;;;;;7.66;100.00;101950.75;4972093;28;47322;-86
2023/01/30 00:18:26;;;;;;;;;34.67;30.67;;;;;7.65;100.00;101938.34;4972779;28;45666;-86
2023/01/30 00:20:56;;;;;;;;;38.67;34.67;;;;;7.78;100.00;101932.75;4988169;28;45238;-86
2023/01/30 00:23:22;;;;;;;;;38.00;33.00;;;;;7.67;100.00;101924.31;4970115;28;45484;-86
2023/01/30 00:25:47;;;;;;;;;30.33;26.33;;;;;7.68;100.00;101919.97;4968917;28;46902;-86
2023/01/30 00:28:13;;;;;;;;;37.00;33.00;;;;;7.67;100.00;101924.31;4987498;28;45516;-86
2023/01/30 00:30:38;;;;;;;;;33.33;27.67;;;;;7.65;100.00;101918.03;4974237;28;45361;-86
2023/01/30 00:33:03;;;;;;;;;31.67;28.00;;;;;7.67;100.00;101916.38;4972334;28;45340;-86
2023/01/30 00:35:29;;;;;;;;;39.33;33.00;;;;;7.66;100.00;101905.75;4970460;28;48260;-86
2023/01/30 00:37:56;;;;;;;;;32.00;28.67;;;;;7.68;100.00;101897.03;4974750;28;45386;-86
2023/01/30 00:40:22;;;;;;;;;28.67;28.67;;;;;7.73;100.00;101908.69;4969705;28;45426;-86
2023/01/30 00:48:19;;;;;;;;;34.67;26.33;;;;;7.75;100.00;101885.84;4987953;28;45320;-86
2023/01/30 00:50:45;;;;;;;;;30.67;26.67;;;;;7.77;100.00;101884.16;4971255;28;45274;-86
2023/01/30 00:53:12;;;;;;;;;34.33;30.33;;;;;7.84;100.00;101888.00;4987171;28;45305;-86
2023/01/30 00:55:38;;;;;;;;;32.33;25.67;;;;;7.80;100.00;101873.72;4972733;28;47708;-86
2023/01/30 00:58:04;;;;;;;;;30.33;25.00;;;;;7.81;100.00;101875.50;4981056;28;45466;-86
2023/01/30 01:00:30;;;;;;;;;35.00;29.00;;;;;7.87;100.00;101876.63;4989814;28;45420;-85
2023/01/30 01:02:55;;;;;;;;;33.00;24.33;;;;;7.79;100.00;101865.69;4988501;28;45773;-85
2023/01/30 01:05:20;;;;;;;;;26.67;24.33;;;;;7.84;100.00;101863.25;4988994;28;47169;-85
2023/01/30 01:07:46;;;;;;;;;33.33;29.33;;;;;7.82;100.00;101856.16;5006937;28;45429;-85
2023/01/30 01:10:15;;;;;;;;;30.00;27.00;;;;;7.85;100.00;101859.78;4989681;28;45407;-85
2023/01/30 01:12:45;;;;;;;;;33.33;28.33;;;;;7.91;100.00;101850.34;4989111;28;45640;-86
2023/01/30 01:15:11;;;;;;;;;30.00;28.00;;;;;7.91;100.00;101854.75;4988130;28;48301;-86
2023/01/30 01:17:37;;;;;;;;;34.67;29.00;;;;;7.92;100.00;101856.56;5003366;28;45388;-86
2023/01/30 01:20:04;;;;;;;;;25.67;25.67;;;;;7.95;100.00;101832.84;4985609;28;45288;-85
2023/01/30 01:22:30;;;;;;;;;33.33;29.00;;;;;7.93;100.00;101842.47;4987053;28;44850;-86
2023/01/30 01:24:55;;;;;;;;;27.00;25.67;;;;;7.73;100.00;101809.84;5004108;28;45296;-86
2023/01/30 01:27:21;;;;;;;;;29.67;26.67;;;;;7.85;100.00;101833.28;4986736;28;45650;-86
2023/01/30 01:29:46;;;;;;;;;26.67;26.33;;;;;7.88;100.00;101839.63;4989419;28;45358;-87
2023/01/30 01:32:11;;;;;;;;;32.33;27.33;;;;;7.88;100.00;101839.63;4989759;28;45637;-86
2023/01/30 01:34:37;;;;;;;;;27.67;24.00;;;;;7.85;100.00;101825.34;4987965;28;47771;-85
2023/01/30 01:37:02;;;;;;;;;28.67;26.00;;;;;7.92;100.00;101832.72;5005006;28;45343;-85
2023/01/30 01:41:00;;;;;;;;;32.33;28.33;;;;;7.92;100.00;101840.66;4989532;28;45502;-85
2023/01/30 01:42:13;;;;;;;;;24.00;24.00;;;;;7.87;100.00;101840.44;5006473;28;45358;-86
2023/01/30 01:45:01;;;;;;;;;27.67;25.67;;;;;8.05;100.00;101835.03;5007296;28;46377;-86
2023/01/30 01:47:27;;;;;;;;;26.00;23.33;;;;;7.88;100.00;101833.44;4989514;28;45786;-86
2023/01/30 01:49:54;;;;;;;;;29.00;26.00;;;;;7.92;100.00;101822.13;4988124;28;45439;-87
2023/01/30 01:52:20;;;;;;;;;28.67;25.33;;;;;7.88;100.00;101828.13;5006235;28;45341;-86
2023/01/30 01:54:58;;;;;;;;;25.67;22.67;;;;;7.99;100.00;101833.03;4987206;28;47996;-86
2023/01/30 01:57:30;;;;;;;;;26.67;24.67;;;;;8.05;100.00;101835.03;4987948;28;45256;-86
2023/01/30 02:00:11;;;;;;;;;30.00;25.00;;;;;8.04;100.00;101827.94;4986517;28;45293;-86
2023/01/30 02:02:38;;;;;;;;;25.00;22.33;;;;;7.93;100.00;101822.16;4987704;28;45326;-87
2023/01/30 02:05:05;;;;;;;;;28.00;26.33;;;;;7.94;100.00;101826.66;4987449;28;47959;-86
2023/01/30 02:07:44;;;;;;;;;33.00;27.67;;;;;7.99;100.00;101816.22;4988628;28;45376;-86
2023/01/30 02:10:16;;;;;;;;;29.00;24.67;;;;;7.95;100.00;101819.59;4988750;28;45472;-87
2023/01/30 02:12:42;;;;;;;;;32.67;29.33;;;;;7.96;100.00;101832.00;5006109;28;45738;-87
2023/01/30 02:15:08;;;;;;;;;29.00;27.00;;;;;7.92;100.00;101825.69;5005192;28;46952;-87
2023/01/30 02:17:34;;;;;;;;;23.33;19.67;;;;;7.92;100.00;101838.03;4989822;28;45411;-87
2023/01/30 02:19:59;;;;;;;;;29.67;29.00;;;;;7.93;100.00;101827.47;5006314;28;45553;-86
2023/01/30 02:22:55;;;;;;;;;32.33;29.67;;;;;8.09;100.00;101818.41;4990441;28;45419;-85
2023/01/30 02:25:50;;;;;;;;;30.67;25.67;;;;;8.03;100.00;101812.88;4990237;28;47060;-86
2023/01/30 02:28:53;;;;;;;;;32.33;27.33;;;;;8.09;100.00;101821.06;5002717;28;45421;-87
2023/01/30 02:31:24;;;;;;;;;31.00;25.00;;;;;7.96;100.00;101817.03;4987512;28;45419;-86
2023/01/30 02:34:07;;;;;;;;;33.33;29.67;;;;;8.04;100.00;101830.59;4969289;28;45461;-85
2023/01/30 02:36:54;;;;;;;;;28.33;25.00;;;;;8.03;100.00;101820.81;4969075;28;47366;-86
2023/01/30 02:39:29;;;;;;;;;33.67;29.00;;;;;7.91;100.00;101823.84;4968518;28;45379;-86
2023/01/30 02:42:18;;;;;;;;;32.33;28.00;;;;;8.02;100.00;101825.22;4968387;28;45350;-86
2023/01/30 02:44:49;;;;;;;;;31.33;26.33;;;;;7.97;100.00;101807.31;4966359;28;45569;-86
2023/01/30 02:47:30;;;;;;;;;29.00;25.00;;;;;8.00;100.00;101816.31;4984106;28;45527;-87
2023/01/30 02:50:18;;;;;;;;;32.67;27.67;;;;;8.01;100.00;101830.44;4967260;28;45250;-86
2023/01/30 02:52:44;;;;;;;;;27.67;20.33;;;;;7.94;100.00;101846.94;4985042;28;45389;-86
2023/01/30 02:55:18;;;;;;;;;28.00;25.33;;;;;8.03;100.00;101820.81;4966848;28;45495;-86
2023/01/30 02:57:43;;;;;;;;;27.67;25.00;;;;;7.93;100.00;101827.47;4994002;28;46222;-86
2023/01/30 03:00:09;;;;;;;;;23.00;19.33;;;;;7.92;100.00;101814.19;5003826;28;45326;-86
2023/01/30 03:03:05;;;;;;;;;29.00;24.33;;;;;7.93;100.00;101808.03;4986862;28;45337;-85
2023/01/30 03:05:37;;;;;;;;;24.67;24.33;;;;;8.00;100.00;101837.50;5004575;28;45564;-85
2023/01/30 03:08:26;;;;;;;;;30.00;28.33;;;;;8.11;100.00;101819.38;4987820;28;48068;-86
2023/01/30 03:10:59;;;;;;;;;32.00;29.00;;;;;8.06;100.00;101822.69;5004274;28;46265;-87
2023/01/30 03:13:51;;;;;;;;;25.33;24.33;;;;;8.17;100.00;101826.69;4987097;28;45363;-86
2023/01/30 03:16:31;;;;;;;;;26.67;24.00;;;;;8.08;100.00;101827.22;4928211;28;45445;-86
2023/01/30 03:19:00;;;;;;;;;28.67;27.33;;;;;8.13;100.00;101825.66;4943281;28;46557;-86
2023/01/30 03:21:25;;;;;;;;;30.00;25.00;;;;;8.08;100.00;101836.91;4943474;28;46025;-86
2023/01/30 03:23:51;;;;;;;;;34.67;29.33;;;;;8.02;100.00;101832.28;4927606;28;45456;-86
2023/01/30 03:26:23;;;;;;;;;25.67;25.33;;;;;8.14;100.00;101818.59;4943187;28;45858;-86
2023/01/30 03:28:50;;;;;;;;;29.33;26.00;;;;;8.06;100.00;101828.91;4926257;28;47110;-86
2023/01/30 03:31:16;;;;;;;;;24.67;24.67;;;;;8.00;100.00;101802.16;4942440;28;45857;-86
2023/01/30 03:33:41;;;;;;;;;25.00;25.00;;;;;8.01;100.00;101803.94;4926218;28;45405;-85
2023/01/30 03:36:08;;;;;;;;;28.67;25.67;;;;;8.03;100.00;101802.28;4943115;28;45781;-86
2023/01/30 03:38:34;;;;;;;;;26.67;26.67;;;;;8.04;100.00;101817.34;4926313;28;48346;-86
2023/01/30 03:41:00;;;;;;;;;32.00;28.00;;;;;7.96;100.00;101805.53;4940712;28;45490;-86
2023/01/30 03:43:26;;;;;;;;;26.67;21.67;;;;;7.97;100.00;101818.81;4943155;28;45454;-86
2023/01/30 03:45:51;;;;;;;;;20.00;15.67;;;;;7.90;100.00;101803.53;4943944;28;45432;-86
2023/01/30 03:48:16;;;;;;;;;27.00;25.33;;;;;7.90;100.00;101799.97;4942013;28;46525;-86
2023/01/30 03:50:42;;;;;;;;;27.00;25.00;;;;;8.00;100.00;101802.16;4925647;28;45558;-86
2023/01/30 03:53:08;;;;;;;;;27.00;25.33;;;;;7.93;100.00;101800.09;4951815;28;45568;-86
2023/01/30 03:55:33;;;;;;;;;26.33;26.33;;;;;7.93;100.00;101795.69;5003172;28;45440;-86
2023/01/30 03:57:59;;;;;;;;;26.33;24.00;;;;;7.97;100.00;101796.72;4984193;28;47217;-87
2023/01/30 04:00:24;;;;;;;;;30.00;27.00;;;;;7.97;100.00;101804.66;4984435;28;45442;-87
2023/01/30 04:02:50;;;;;;;;;28.33;25.67;;;;;7.91;100.00;101785.88;4984243;28;45431;-87
2023/01/30 04:05:15;;;;;;;;;28.33;26.33;;;;;7.98;100.00;101794.16;5003453;28;45470;-87
2023/01/30 04:07:41;;;;;;;;;32.67;26.00;;;;;7.99;100.00;101787.09;4986263;28;47461;-87
2023/01/30 04:10:07;;;;;;;;;28.67;26.67;;;;;7.97;100.00;101780.81;4985333;28;45505;-87
2023/01/30 04:12:32;;;;;;;;;26.00;24.00;;;;;7.99;100.00;101795.03;4983944;28;45466;-87
2023/01/30 04:14:57;;;;;;;;;39.00;29.67;;;;;7.96;100.00;101790.53;5002515;28;45255;-87
2023/01/30 04:17:23;;;;;;;;;28.33;24.33;;;;;7.91;100.00;101781.47;5000645;28;46459;-87
2023/01/30 04:19:48;;;;;;;;;32.67;24.00;;;;;7.94;100.00;101780.72;4982594;28;45353;-87
2023/01/30 04:22:13;;;;;;;;;26.00;24.33;;;;;7.97;100.00;101781.72;5003203;28;45249;-86
2023/01/30 04:24:39;;;;;;;;;28.67;23.67;;;;;7.95;100.00;101782.50;4986813;28;45534;-86
2023/01/30 04:27:04;;;;;;;;;22.00;21.00;;;;;7.93;100.00;101765.66;4985424;28;46911;-86
2023/01/30 04:29:29;;;;;;;;;26.67;24.00;;;;;7.86;100.00;101758.28;4984201;28;45402;-86
2023/01/30 04:31:55;;;;;;;;;25.33;20.67;;;;;7.90;100.00;101763.78;4984649;28;45511;-86
2023/01/30 04:34:20;;;;;;;;;18.67;17.67;;;;;7.88;100.00;101759.28;4985077;28;45395;-86
2023/01/30 04:36:46;;;;;;;;;26.00;24.00;;;;;7.94;100.00;101767.47;5003059;28;46027;-86
2023/01/30 04:39:11;;;;;;;;;25.33;24.00;;;;;7.96;100.00;101763.16;5001539;28;45422;-86
2023/01/30 04:41:36;;;;;;;;;23.33;21.67;;;;;7.97;100.00;101760.53;4985256;28;45380;-85
2023/01/30 04:44:02;;;;;;;;;32.67;29.67;;;;;8.00;100.00;101773.03;4985892;28;45741;-86
2023/01/30 04:46:27;;;;;;;;;25.67;24.33;;;;;7.99;100.00;101763.25;4985377;28;46850;-86
2023/01/30 04:48:52;;;;;;;;;26.67;21.33;;;;;8.03;100.00;101762.53;4993789;28;45411;-86
2023/01/30 04:51:18;;;;;;;;;16.33;14.67;;;;;8.02;100.00;101758.09;4982376;28;45391;-87
2023/01/30 04:53:43;;;;;;;;;31.33;24.67;;;;;8.05;100.00;101763.50;4967386;28;45694;-86
2023/01/30 04:56:09;;;;;;;;;26.33;25.67;;;;;8.04;100.00;101752.84;4968866;28;47627;-86
2023/01/30 04:58:34;;;;;;;;;24.67;23.00;;;;;8.04;100.00;101756.41;4985966;28;45506;-86
2023/01/30 05:01:34;;;;;;;;;24.67;22.33;;;;;8.17;100.00;101763.09;4967786;28;44872;-86
2023/01/30 05:04:00;;;;;;;;;27.33;25.33;;;;;8.10;100.00;101759.31;4984668;28;45380;-86
2023/01/30 05:06:26;;;;;;;;;21.00;19.33;;;;;8.14;100.00;101770.91;4968962;28;47633;-86
2023/01/30 05:08:54;;;;;;;;;24.00;20.67;;;;;8.18;100.00;101771.13;4968472;28;45789;-86
2023/01/30 05:11:20;;;;;;;;;24.00;22.67;;;;;8.13;100.00;101766.47;4985859;28;45474;-86
2023/01/30 05:13:47;;;;;;;;;23.00;23.00;;;;;8.10;100.00;101767.25;4972830;28;45434;-85
2023/01/30 05:16:13;;;;;;;;;25.00;19.67;;;;;8.18;100.00;101773.78;4971935;28;48154;-86
2023/01/30 05:18:39;;;;;;;;;20.33;20.33;;;;;8.17;100.00;101779.91;4970643;28;45931;-85
2023/01/30 05:21:11;;;;;;;;;27.33;25.00;;;;;8.15;100.00;101748.88;4971321;28;45430;-86
2023/01/30 05:23:36;;;;;;;;;25.33;25.00;;;;;8.11;100.00;101755.81;4971465;28;45766;-84
2023/01/30 05:26:03;;;;;;;;;32.00;26.00;;;;;8.16;100.00;101745.38;4987732;28;45335;-86
2023/01/30 05:28:28;;;;;;;;;30.00;29.33;;;;;8.14;100.00;101742.69;4970436;28;45322;-86
2023/01/30 05:30:59;;;;;;;;;23.67;22.00;;;;;8.19;100.00;101754.34;4971274;28;45338;-86
2023/01/30 05:33:25;;;;;;;;;19.33;19.33;;;;;8.14;100.00;101736.47;4971683;28;45365;-86
2023/01/30 05:35:50;;;;;;;;;26.33;21.67;;;;;8.15;100.00;101743.59;4987923;28;45486;-87
2023/01/30 05:38:15;;;;;;;;;20.00;17.33;;;;;8.17;100.00;101753.41;4971609;28;45321;-85
2023/01/30 05:40:41;;;;;;;;;28.67;25.67;;;;;8.23;100.00;101757.16;4987098;28;45302;-86
2023/01/30 05:43:06;;;;;;;;;24.67;20.67;;;;;8.19;100.00;101754.34;4969091;28;45409;-85
2023/01/30 05:45:33;;;;;;;;;25.67;20.67;;;;;8.20;100.00;101755.25;4967730;28;47480;-85
2023/01/30 05:47:58;;;;;;;;;26.00;23.00;;;;;8.23;100.00;101747.44;4967297;28;45413;-87
2023/01/30 05:50:24;;;;;;;;;21.67;21.67;;;;;8.23;100.00;101749.19;4986200;28;45484;-86
2023/01/30 05:52:49;;;;;;;;;20.00;19.00;;;;;8.23;100.00;101739.50;4968624;28;45380;-86
2023/01/30 05:55:15;;;;;;;;;20.00;20.00;;;;;8.20;100.00;101736.69;4970171;28;48621;-85
2023/01/30 05:57:40;;;;;;;;;21.33;17.00;;;;;8.15;100.00;101733.00;4969308;28;45731;-86
2023/01/30 06:00:06;;;;;;;;;20.67;17.33;;;;;8.18;100.00;101725.13;4969389;28;45411;-86
2023/01/30 06:02:32;;;;;;;;;18.67;18.67;;;;;8.18;100.00;101731.38;4986843;28;45333;-86
2023/01/30 06:04:57;;;;;;;;;23.33;20.00;;;;;8.14;100.00;101720.56;4985638;28;45394;-86
2023/01/30 06:07:22;;;;;;;;;22.33;18.33;;;;;8.17;100.00;101726.91;4969628;28;46059;-86
2023/01/30 06:09:48;;;;;;;;;22.00;21.67;;;;;8.14;100.00;101710.91;4966765;28;44834;-85
2023/01/30 06:12:13;;;;;;;;;25.00;22.67;;;;;8.17;100.00;101718.94;4967892;28;45483;-86
2023/01/30 06:14:38;;;;;;;;;21.33;18.33;;;;;8.15;100.00;101722.38;4969394;28;46739;-86
2023/01/30 06:17:04;;;;;;;;;20.00;20.00;;;;;8.14;100.00;101720.56;4993239;28;45542;-87
2023/01/30 06:19:29;;;;;;;;;19.33;18.33;;;;;8.19;100.00;101737.56;5007500;28;45342;-86
2023/01/30 06:21:55;;;;;;;;;21.00;20.67;;;;;8.21;100.00;101728.81;4987921;28;45430;-86
2023/01/30 06:24:20;;;;;;;;;17.00;16.33;;;;;8.24;100.00;101727.13;4987052;28;47118;-86
2023/01/30 06:26:45;;;;;;;;;23.67;19.00;;;;;8.16;100.00;101703.91;5005228;28;45672;-86
2023/01/30 06:29:11;;;;;;;;;21.33;20.00;;;;;8.27;100.00;101728.16;4987477;28;45397;-87
2023/01/30 06:31:36;;;;;;;;;22.00;22.00;;;;;8.20;100.00;101719.09;4987521;28;45393;-85
2023/01/30 06:34:02;;;;;;;;;23.00;20.00;;;;;8.30;100.00;101741.56;5005005;28;45669;-86
2023/01/30 06:36:27;;;;;;;;;28.00;23.00;;;;;8.20;100.00;101724.38;4990085;28;45595;-86
2023/01/30 06:38:54;;;;;;;;;21.00;19.00;;;;;8.37;100.00;101750.63;4989744;28;45518;-86
2023/01/30 06:41:19;;;;;;;;;23.00;20.67;;;;;8.32;100.00;101762.78;4988397;28;45513;-86
2023/01/30 06:43:45;;;;;;;;;18.67;16.33;;;;;8.29;100.00;101760.03;5003120;28;46140;-86
2023/01/30 06:46:10;;;;;;;;;23.33;21.00;;;;;8.25;100.00;101766.06;5006767;28;45312;-86
2023/01/30 06:48:36;;;;;;;;;20.00;20.00;;;;;8.25;100.00;101764.31;4990697;28;45245;-86
2023/01/30 06:51:01;;;;;;;;;21.33;20.00;;;;;8.29;100.00;101768.88;4991595;28;44886;-86
2023/01/30 06:53:29;;;;;;;;;23.33;20.00;;;;;8.24;100.00;101764.25;4990777;28;47891;-85
2023/01/30 06:55:58;;;;;;;;;22.33;19.33;;;;;8.34;100.00;101777.00;4990743;28;45886;-86
2023/01/30 06:58:24;;;;;;;;;21.00;21.00;;;;;8.33;100.00;101773.47;4992923;28;45288;-86
2023/01/30 07:00:50;;;;;;;;;21.67;17.00;;;;;8.38;100.00;101789.53;4992286;28;45602;-86
2023/01/30 07:03:16;;;;;;;;;21.33;16.67;;;;;8.38;100.00;101776.28;4989959;28;47502;-86
2023/01/30 07:05:44;;;;;;;;;17.33;17.33;;;;;8.46;100.00;101795.19;4989063;28;45442;-85
2023/01/30 07:08:10;;;;;;;;;21.67;20.33;;;;;8.34;100.00;101790.25;4988345;28;45451;-86
2023/01/30 07:10:35;;;;;;;;;23.00;20.67;;;;;8.28;100.00;101782.06;4991956;28;45785;-86
2023/01/30 07:13:01;;;;;;;;;16.67;14.67;;;;;8.42;100.00;101791.50;4990670;28;46975;-87
2023/01/30 07:15:27;;;;;;;;;19.67;19.67;;;;;8.26;100.00;101763.47;4987527;28;45443;-85
2023/01/30 07:17:53;;;;;;;;;21.67;20.67;;;;;8.40;100.00;101786.13;4988742;28;45427;-86
2023/01/30 07:20:18;;;;;;;;;20.67;18.00;;;;;8.41;100.00;101795.91;5009251;28;45182;-86
2023/01/30 07:22:51;;;;;;;;;20.33;16.33;;;;;8.53;100.00;101800.81;4990414;28;47795;-83
2023/01/30 07:25:18;;;;;;;;;19.00;18.33;;;;;8.55;100.00;101820.31;4990230;28;45376;-85
2023/01/30 07:27:53;;;;;;;;;25.67;21.00;;;;;8.61;100.00;101820.56;5003160;28;45460;-85
2023/01/30 07:30:18;;;;;;;;;25.67;22.33;;;;;8.55;100.00;101816.78;4971826;28;45428;-85
2023/01/30 07:32:51;;;;;;;;;16.33;16.33;;;;;8.60;100.00;101813.47;4971496;28;47143;-86
2023/01/30 07:35:16;;;;;;;;;22.67;21.00;;;;;8.38;100.00;101794.84;4971120;28;45447;-84
2023/01/30 07:37:46;;;;;;;;;22.00;20.00;;;;;8.63;100.00;101825.94;4972426;28;45336;-86
2023/01/30 07:40:12;;;;;;;;;17.00;13.67;;;;;8.53;100.00;101814.06;4971696;28;46804;-87
2023/01/30 07:42:37;;;;;;;;;39.33;33.33;;;;;8.36;100.00;101792.16;4987358;28;46143;-87
2023/01/30 07:45:06;;;;;;;;;20.33;20.00;;;;;8.48;100.00;101807.66;4969701;28;45398;-87
2023/01/30 07:47:31;;;;;;;;;16.67;16.67;;;;;8.54;100.00;101818.53;4986868;28;45403;-86
2023/01/30 07:49:58;;;;;;;;;22.00;20.33;;;;;8.63;100.00;101817.09;4971521;28;45357;-86
2023/01/30 07:52:27;;;;;;;;;33.33;25.33;;;;;8.51;100.00;101810.44;4976270;28;48079;-88
2023/01/30 07:54:54;;;;;;;;;29.67;26.00;;;;;8.58;100.00;101812.50;4977222;28;45423;-88
2023/01/30 07:57:19;;;;;;;;;16.67;15.33;;;;;8.59;100.00;101806.34;4977674;28;44941;-87
2023/01/30 07:59:51;;;;;;;;;24.67;20.33;;;;;8.73;100.00;101803.34;4992631;28;45369;-85
2023/01/30 08:02:17;;;;;;;;;26.67;26.67;;;;;8.64;100.00;101795.91;4972166;28;47243;-86
2023/01/30 08:04:42;;;;;;;;;17.33;17.33;;;;;8.71;100.00;101808.56;4989089;28;44802;-86
2023/01/30 08:07:08;;;;;;;;;22.33;20.67;;;;;8.70;100.00;101809.41;4974738;28;45443;-86
2023/01/30 08:09:35;;;;;;;;;24.67;22.00;;;;;8.73;100.00;101809.53;4958223;28;45449;-86
2023/01/30 08:12:00;;;;;;;;;45.00;39.00;;;;;8.58;100.00;101791.28;4974366;28;47943;-85
2023/01/30 08:14:28;;;;;;;;;24.67;17.00;;;;;8.80;100.00;101816.88;4974820;28;44776;-86
2023/01/30 08:16:57;;;;;;;;;20.67;19.33;;;;;8.68;100.00;101788.97;4976103;28;45266;-87
2023/01/30 08:19:23;;;;;;;;;21.33;20.67;;;;;8.56;100.00;101778.78;5008761;28;45430;-89
2023/01/30 08:22:01;;;;;;;;;19.67;19.33;;;;;8.58;100.00;101777.09;4994491;28;46697;-87
2023/01/30 08:24:30;;;;;;;;;25.67;21.67;;;;;8.89;100.00;101821.66;5000818;28;44735;-87
2023/01/30 08:26:59;;;;;;;;;26.33;22.00;;;;;8.90;100.00;101823.44;4988214;28;45322;-86
2023/01/30 08:30:00;;;;;;;;;27.00;24.33;;;;;8.96;100.00;101833.38;4995634;28;45563;-87
2023/01/30 08:32:28;;;;;;;;;25.00;20.00;;;;;8.67;100.00;101787.19;4921421;28;45498;-86
2023/01/30 08:36:26;;;;;;;;;24.00;21.00;;;;;8.72;100.00;101780.28;4920699;28;45336;-88
2023/01/30 08:39:01;;;;;;;;;22.33;16.00;;;;;8.95;100.00;101835.13;4866178;29;45194;-88
2023/01/30 08:45:10;;;;;;;;;25.33;22.33;;;;;8.93;100.00;101822.66;4787585;29;45396;-87
2023/01/30 08:48:32;;;;;;;;;22.00;20.00;;;;;9.17;100.00;101841.25;4782726;29;45401;-87
2023/01/30 08:51:07;;;;;;;;;23.33;21.00;;;;;8.92;100.00;101820.84;4819612;29;45517;-88
2023/01/30 08:53:32;;;;;;;;;18.33;15.00;;;;;8.98;100.00;101835.25;4810141;29;45512;-88
2023/01/30 08:56:30;;;;;;;;;21.67;18.33;;;;;9.02;100.00;101817.69;4808376;29;45413;-87
2023/01/30 08:59:18;;;;;;;;;23.33;20.67;;;;;9.15;100.00;101846.50;4795112;29;45951;-87
2023/01/30 09:01:47;;;;;;;;;25.67;20.00;;;;;8.91;100.00;101812.00;4808742;29;44963;-86
2023/01/30 09:04:27;;;;;;;;;21.33;20.67;;;;;9.12;100.00;101835.78;4806363;29;45474;-86
2023/01/30 09:07:04;;;;;;;;;19.00;19.00;;;;;9.29;100.00;101859.38;4789367;29;47056;-87
2023/01/30 09:13:30;;;;;;;;;;;;;;;;;;;;;
2023/01/30 09:19:01;;;;;;;;;18.67;17.33;;;;;9.16;100.00;101858.91;4805240;29;45378;-87
2023/01/30 09:22:10;;;;;;;;;22.33;20.67;;;;;9.31;100.00;101863.00;4825066;29;45656;-88
2023/01/30 09:24:59;;;;;;;;;25.00;17.33;;;;;9.33;100.00;101862.22;4803795;29;45523;-86
2023/01/30 09:27:46;;;;;;;;;18.67;17.67;;;;;9.18;100.00;101819.19;4807832;29;45021;-88
2023/01/30 09:30:12;;;;;;;;;22.33;18.67;;;;;9.16;100.00;101815.56;4803950;29;46843;-88
2023/01/30 09:32:44;;;;;;;;;21.00;18.67;;;;;9.59;100.00;101854.28;4811736;29;45851;-87
2023/01/30 09:35:38;;;;;;;;;28.00;21.67;;;;;9.45;100.00;101855.53;4809348;29;44760;-87
2023/01/30 09:38:24;;;;;;;;;19.33;17.33;;;;;9.37;100.00;101852.59;4806256;29;45413;-87
2023/01/30 09:41:42;;;;;;;;;21.67;21.67;;;;;9.68;100.00;101859.94;4804641;29;46773;-87
2023/01/30 09:44:35;;;;;;;;;21.00;18.00;;;;;9.70;100.00;101846.72;4786635;29;45434;-86
2023/01/30 09:47:20;;;;;;;;;18.00;18.00;;;;;9.64;100.00;101833.22;4801791;29;45590;-86
2023/01/30 09:50:19;;;;;;;;;18.33;17.33;;;;;9.77;100.00;101841.66;4802103;29;45305;-85
2023/01/30 09:53:12;;;;;;;;;23.67;22.33;;;;;9.87;100.00;101860.59;4804391;29;47176;-87
2023/01/30 09:56:02;;;;;;;;;21.00;21.00;;;;;9.84;100.00;101866.72;4835867;29;45316;-86
2023/01/30 09:59:05;;;;;;;;;23.67;20.00;;;;;9.95;100.00;101864.41;4881756;29;45655;-86
2023/01/30 10:02:12;;;;;;;;;15.33;12.00;;;;;9.76;100.00;101842.53;4932529;28;45286;-87
2023/01/30 10:05:03;;;;;;;;;22.00;19.33;;;;;9.93;100.00;101866.09;4925610;28;47009;-86
2023/01/30 10:08:07;;;;;;;;;22.00;20.00;;;;;9.97;100.00;101863.59;4940990;28;45402;-86
2023/01/30 10:11:13;;;;;;;;;22.33;19.67;;;;;10.09;100.00;101863.13;4956898;28;44743;-87
2023/01/30 10:14:19;;;;;;;;;18.00;17.00;;;;;10.21;100.00;101865.31;4941502;28;45452;-87
2023/01/30 10:17:30;;;;;;;;;21.33;16.33;;;;;10.38;100.00;101882.78;4972859;28;46944;-87
2023/01/30 10:20:42;;;;;;;;;;;;;;;;;;;;;
2023/01/30 10:23:32;;;;;;;;;;;;;;;;;;;;;
2023/01/30 10:29:57;;;;;;;;;23.33;22.00;;;;;10.67;100.00;101872.16;4914635;28;45481;-87
2023/01/30 10:33:05;;;;;;;;;;;;;;;;;;;;;
2023/01/30 10:35:38;;;;;;;;;19.00;17.00;;;;;10.73;100.00;101882.09;4947279;28;68245;-86
2023/01/30 10:38:32;;;;;;;;;23.00;22.33;;;;;10.61;100.00;101843.59;4916624;28;45314;-87
2023/01/30 10:41:20;;;;;;;;;17.00;17.00;;;;;10.85;100.00;101862.97;4899969;29;48092;-86
2023/01/30 10:43:53;;;;;;;;;25.00;24.00;;;;;10.90;100.00;101840.94;4910582;28;45461;-86
2023/01/30 10:46:45;;;;;;;;;7.00;3.33;;;;;11.09;100.00;101850.38;4913852;29;45908;-87
2023/01/30 10:49:49;;;;;;;;;15.33;14.67;;;;;11.25;100.00;101856.16;4899872;29;45523;-87
2023/01/30 10:52:55;;;;;;;;;17.67;17.00;;;;;11.44;100.00;101850.50;4899693;29;47322;-88
2023/01/30 10:55:32;;;;;;;;;14.67;14.67;;;;;11.55;100.00;101856.13;4904874;28;44753;-88
2023/01/30 10:58:26;;;;;;;;;15.67;14.00;;;;;11.57;100.00;101851.75;4902057;29;45417;-88
2023/01/30 11:01:49;;;;;;;;;;;;;;;;;;;;;
2023/01/30 11:05:05;;;;;;;;;19.00;17.67;;;;;11.76;100.00;101864.72;4917051;29;74433;-88
2023/01/30 11:07:34;;;;;;;;;12.00;9.67;;;;;11.59;100.00;101839.34;4958301;28;45390;-88
2023/01/30 11:10:31;;;;;;;;;13.00;13.00;;;;;11.71;100.00;101849.47;4938061;28;45369;-85
2023/01/30 11:13:25;;;;;;;;;13.33;13.33;;;;;11.56;100.00;101825.97;4946750;28;45432;-88
2023/01/30 11:15:55;;;;;;;;;18.33;17.67;;;;;11.43;100.00;101798.06;4919832;28;45458;-85
2023/01/30 11:18:22;;;;;;;;;15.00;13.67;;;;;11.65;100.00;101860.84;4944302;28;45362;-86
2023/01/30 11:21:14;;;;;;;;;13.00;12.00;;;;;11.41;100.00;101807.78;4936247;28;45524;-87
2023/01/30 11:24:12;;;;;;;;;13.00;13.00;;;;;11.46;100.00;101823.91;4945736;28;45583;-86
2023/01/30 11:26:38;;;;;;;;;14.00;14.00;;;;;11.53;100.00;101855.19;4943313;28;45424;-84
2023/01/30 11:29:29;;;;;;;;;10.67;9.00;;;;;11.58;100.00;101800.28;4935201;28;45458;-85
2023/01/30 11:32:00;;;;;;;;;10.00;10.00;;;;;11.61;100.00;101835.91;4935370;28;45433;-85
2023/01/30 11:34:26;;;;;;;;;11.67;10.00;;;;;11.54;100.00;101822.38;4938111;28;44831;-84
2023/01/30 11:36:52;;;;;;;;;13.67;11.00;;;;;11.52;100.00;101824.09;4936933;28;46991;-84
2023/01/30 11:39:30;;;;;;;;;12.00;9.67;;;;;11.59;100.00;101839.34;4952216;28;44832;-85
2023/01/30 11:42:00;;;;;;;;;15.00;14.00;;;;;11.58;100.00;101840.25;4971581;28;44839;-85
2023/01/30 11:48:11;;;;;;;;;16.00;16.00;;;;;11.53;100.00;101820.53;4974648;28;45474;-84
2023/01/30 11:50:49;;;;;;;;;13.00;12.67;;;;;11.57;100.00;101830.44;4954253;28;45484;-85
2023/01/30 11:53:41;;;;;;;;;13.33;13.33;;;;;11.61;100.00;101817.25;4977914;28;45394;-86
2023/01/30 11:56:39;;;;;;;;;13.00;12.33;;;;;11.69;100.00;101825.44;4959168;28;44857;-85
2023/01/30 11:59:54;;;;;;;;;;;;;;;;;;;;;
2023/01/30 12:02:31;;;;;;;;;12.33;11.67;;;;;11.60;100.00;101814.53;4975409;28;71949;-85
2023/01/30 12:05:07;;;;;;;;;11.67;11.67;;;;;11.48;100.00;101814.22;4994094;28;45445;-85
2023/01/30 12:07:36;;;;;;;;;14.33;13.67;;;;;11.04;100.00;101763.25;4989310;28;44826;-84
2023/01/30 12:10:22;;;;;;;;;10.00;10.00;;;;;11.16;100.00;101796.44;4960525;28;46749;-85